Main page
METAR-TAF:

METAR-TAF

Airports :

South St. Paul Municipal Airport (Richard E. Fleming Field)

South St. Paul, Minnesota, United States

latitude: 44-51-26N, longitude: 093-01-58W, elevation: 820 ft

Current weather observation

The report was made 24 minutes ago, at 21:36 UTC
Wind 8 mph from the Southeast
Temperature 55°F
Humidity 44%
Pressure 29.95 in. Hg
Visibility: 10 miles
Overcast at a height of 6000 ft

METAR: KSGS 012136Z AUTO 14007KT 10SM OVC060 13/01 A2995 RMK AO2 T01330010

Time: 17:00 (22:00 UTC)


TAF: missing

Weather observations and forecasts of more than 4000 airports (METAR and TAF reports).

The available stations are represented by yellow and red dots on the map.

Hover mouse over dot to see the name of the station.

Then click to see weather observations and forecasts.

To change the map : click on the green buttons with a black cross to zoom in, on the green button with a dash to zoom out, or on the green arrows for adjacent maps.


METAR-TAF: